sensor_id;sensor_type;location;lat;lon;timestamp;P1;durP1;ratioP1;P2;durP2;ratioP2
67997;SDS011;54773;53.388;-1.504;2023-05-29T00:01:56;20.50;;;6.70;;
67997;SDS011;54773;53.388;-1.504;2023-05-29T00:04:40;21.10;;;6.73;;
67997;SDS011;54773;53.388;-1.504;2023-05-29T00:07:24;16.47;;;6.53;;
67997;SDS011;54773;53.388;-1.504;2023-05-29T00:10:09;21.50;;;6.82;;
67997;SDS011;54773;53.388;-1.504;2023-05-29T00:12:54;18.70;;;6.18;;
67997;SDS011;54773;53.388;-1.504;2023-05-29T00:15:39;15.15;;;5.30;;
67997;SDS011;54773;53.388;-1.504;2023-05-29T00:18:26;18.08;;;5.32;;
67997;SDS011;54773;53.388;-1.504;2023-05-29T00:23:56;20.10;;;6.05;;
67997;SDS011;54773;53.388;-1.504;2023-05-29T00:26:40;15.43;;;5.10;;
67997;SDS011;54773;53.388;-1.504;2023-05-29T00:29:25;21.58;;;5.35;;
67997;SDS011;54773;53.388;-1.504;2023-05-29T00:32:09;19.67;;;7.57;;
67997;SDS011;54773;53.388;-1.504;2023-05-29T00:34:54;17.20;;;7.13;;
67997;SDS011;54773;53.388;-1.504;2023-05-29T00:37:38;22.92;;;6.47;;
67997;SDS011;54773;53.388;-1.504;2023-05-29T00:40:23;21.23;;;6.40;;
67997;SDS011;54773;53.388;-1.504;2023-05-29T00:43:07;15.82;;;5.30;;
67997;SDS011;54773;53.388;-1.504;2023-05-29T00:45:52;18.77;;;5.65;;
67997;SDS011;54773;53.388;-1.504;2023-05-29T00:48:40;23.75;;;5.93;;
67997;SDS011;54773;53.388;-1.504;2023-05-29T00:51:26;16.30;;;5.53;;
67997;SDS011;54773;53.388;-1.504;2023-05-29T00:54:17;14.68;;;5.53;;
67997;SDS011;54773;53.388;-1.504;2023-05-29T00:57:05;16.15;;;5.85;;
67997;SDS011;54773;53.388;-1.504;2023-05-29T00:59:49;17.13;;;6.40;;
67997;SDS011;54773;53.388;-1.504;2023-05-29T01:05:22;19.35;;;5.13;;
67997;SDS011;54773;53.388;-1.504;2023-05-29T01:08:06;17.98;;;5.20;;
67997;SDS011;54773;53.388;-1.504;2023-05-29T01:10:51;12.20;;;4.45;;
67997;SDS011;54773;53.388;-1.504;2023-05-29T01:13:41;17.70;;;5.53;;
67997;SDS011;54773;53.388;-1.504;2023-05-29T01:16:31;15.20;;;4.85;;
67997;SDS011;54773;53.388;-1.504;2023-05-29T01:22:25;20.67;;;5.05;;
67997;SDS011;54773;53.388;-1.504;2023-05-29T01:25:23;16.80;;;4.43;;
67997;SDS011;54773;53.388;-1.504;2023-05-29T01:28:09;14.02;;;4.18;;
67997;SDS011;54773;53.388;-1.504;2023-05-29T01:30:55;11.77;;;3.80;;
67997;SDS011;54773;53.388;-1.504;2023-05-29T01:33:41;10.32;;;3.65;;
67997;SDS011;54773;53.388;-1.504;2023-05-29T01:36:25;12.50;;;4.33;;
67997;SDS011;54773;53.388;-1.504;2023-05-29T01:41:53;16.33;;;4.90;;
67997;SDS011;54773;53.388;-1.504;2023-05-29T01:44:38;17.05;;;4.47;;
67997;SDS011;54773;53.388;-1.504;2023-05-29T01:47:22;14.93;;;3.85;;
67997;SDS011;54773;53.388;-1.504;2023-05-29T01:50:10;16.60;;;4.93;;
67997;SDS011;54773;53.388;-1.504;2023-05-29T01:52:55;16.35;;;4.68;;
67997;SDS011;54773;53.388;-1.504;2023-05-29T01:55:39;13.20;;;4.63;;
67997;SDS011;54773;53.388;-1.504;2023-05-29T01:58:24;18.70;;;5.50;;
67997;SDS011;54773;53.388;-1.504;2023-05-29T02:01:12;15.15;;;3.97;;
67997;SDS011;54773;53.388;-1.504;2023-05-29T02:03:56;15.73;;;4.50;;
67997;SDS011;54773;53.388;-1.504;2023-05-29T02:06:40;15.60;;;4.13;;
67997;SDS011;54773;53.388;-1.504;2023-05-29T02:09:24;16.05;;;5.38;;
67997;SDS011;54773;53.388;-1.504;2023-05-29T02:12:09;16.88;;;4.45;;
67997;SDS011;54773;53.388;-1.504;2023-05-29T02:14:53;14.40;;;4.30;;
67997;SDS011;54773;53.388;-1.504;2023-05-29T02:17:37;14.80;;;4.43;;
67997;SDS011;54773;53.388;-1.504;2023-05-29T02:20:24;12.23;;;3.63;;
67997;SDS011;54773;53.388;-1.504;2023-05-29T02:23:09;17.77;;;4.30;;
67997;SDS011;54773;53.388;-1.504;2023-05-29T02:25:58;13.25;;;4.05;;
67997;SDS011;54773;53.388;-1.504;2023-05-29T02:28:42;13.25;;;4.57;;
67997;SDS011;54773;53.388;-1.504;2023-05-29T02:31:26;12.90;;;4.20;;
67997;SDS011;54773;53.388;-1.504;2023-05-29T02:34:10;13.57;;;4.70;;
67997;SDS011;54773;53.388;-1.504;2023-05-29T02:36:57;14.95;;;5.07;;
67997;SDS011;54773;53.388;-1.504;2023-05-29T02:39:47;18.20;;;5.75;;
67997;SDS011;54773;53.388;-1.504;2023-05-29T02:42:31;19.35;;;4.93;;
67997;SDS011;54773;53.388;-1.504;2023-05-29T02:45:15;13.63;;;4.75;;
67997;SDS011;54773;53.388;-1.504;2023-05-29T02:50:44;17.30;;;5.10;;
67997;SDS011;54773;53.388;-1.504;2023-05-29T02:53:31;12.30;;;4.85;;
67997;SDS011;54773;53.388;-1.504;2023-05-29T02:56:16;18.45;;;5.07;;
67997;SDS011;54773;53.388;-1.504;2023-05-29T02:59:03;15.63;;;5.07;;
67997;SDS011;54773;53.388;-1.504;2023-05-29T03:01:47;15.70;;;5.55;;
67997;SDS011;54773;53.388;-1.504;2023-05-29T03:04:32;15.85;;;5.28;;
67997;SDS011;54773;53.388;-1.504;2023-05-29T03:07:16;15.85;;;5.43;;
67997;SDS011;54773;53.388;-1.504;2023-05-29T03:10:00;19.40;;;5.50;;
67997;SDS011;54773;53.388;-1.504;2023-05-29T03:12:45;14.23;;;5.55;;
67997;SDS011;54773;53.388;-1.504;2023-05-29T03:15:29;14.93;;;4.80;;
67997;SDS011;54773;53.388;-1.504;2023-05-29T03:18:13;17.70;;;4.80;;
67997;SDS011;54773;53.388;-1.504;2023-05-29T03:20:58;15.43;;;5.13;;
67997;SDS011;54773;53.388;-1.504;2023-05-29T03:23:45;15.45;;;4.80;;
67997;SDS011;54773;53.388;-1.504;2023-05-29T03:26:30;22.75;;;5.00;;
67997;SDS011;54773;53.388;-1.504;2023-05-29T03:32:00;16.88;;;4.88;;
67997;SDS011;54773;53.388;-1.504;2023-05-29T03:34:44;13.27;;;5.07;;
67997;SDS011;54773;53.388;-1.504;2023-05-29T03:37:28;16.95;;;5.43;;
67997;SDS011;54773;53.388;-1.504;2023-05-29T03:40:13;13.20;;;4.88;;
67997;SDS011;54773;53.388;-1.504;2023-05-29T03:42:57;15.13;;;4.83;;
67997;SDS011;54773;53.388;-1.504;2023-05-29T03:45:42;12.07;;;4.50;;
67997;SDS011;54773;53.388;-1.504;2023-05-29T03:48:27;10.18;;;4.00;;
67997;SDS011;54773;53.388;-1.504;2023-05-29T03:51:11;17.15;;;4.72;;
67997;SDS011;54773;53.388;-1.504;2023-05-29T03:53:56;12.60;;;4.45;;
67997;SDS011;54773;53.388;-1.504;2023-05-29T03:56:41;12.50;;;3.80;;
67997;SDS011;54773;53.388;-1.504;2023-05-29T03:59:25;17.13;;;4.50;;
67997;SDS011;54773;53.388;-1.504;2023-05-29T04:02:12;13.30;;;4.00;;
67997;SDS011;54773;53.388;-1.504;2023-05-29T04:04:56;12.23;;;4.30;;
67997;SDS011;54773;53.388;-1.504;2023-05-29T04:07:44;16.30;;;4.18;;
67997;SDS011;54773;53.388;-1.504;2023-05-29T04:10:31;14.55;;;4.18;;
67997;SDS011;54773;53.388;-1.504;2023-05-29T04:13:20;14.43;;;4.18;;
67997;SDS011;54773;53.388;-1.504;2023-05-29T04:16:08;14.88;;;4.38;;
67997;SDS011;54773;53.388;-1.504;2023-05-29T04:18:55;15.65;;;4.15;;
67997;SDS011;54773;53.388;-1.504;2023-05-29T04:21:39;12.88;;;4.20;;
67997;SDS011;54773;53.388;-1.504;2023-05-29T04:24:23;15.00;;;4.30;;
67997;SDS011;54773;53.388;-1.504;2023-05-29T04:27:09;14.25;;;4.95;;
67997;SDS011;54773;53.388;-1.504;2023-05-29T04:29:56;17.75;;;4.75;;
67997;SDS011;54773;53.388;-1.504;2023-05-29T04:32:41;13.93;;;3.88;;
67997;SDS011;54773;53.388;-1.504;2023-05-29T04:35:28;14.00;;;4.20;;
67997;SDS011;54773;53.388;-1.504;2023-05-29T04:40:57;15.15;;;3.95;;
67997;SDS011;54773;53.388;-1.504;2023-05-29T04:43:42;14.15;;;4.38;;
67997;SDS011;54773;53.388;-1.504;2023-05-29T04:46:27;12.45;;;4.13;;
67997;SDS011;54773;53.388;-1.504;2023-05-29T04:49:19;15.60;;;3.88;;
67997;SDS011;54773;53.388;-1.504;2023-05-29T04:52:03;13.63;;;4.20;;
67997;SDS011;54773;53.388;-1.504;2023-05-29T04:54:49;13.75;;;3.83;;
67997;SDS011;54773;53.388;-1.504;2023-05-29T04:57:34;17.23;;;4.82;;
67997;SDS011;54773;53.388;-1.504;2023-05-29T05:00:18;11.33;;;3.53;;
67997;SDS011;54773;53.388;-1.504;2023-05-29T05:03:03;16.00;;;3.80;;
67997;SDS011;54773;53.388;-1.504;2023-05-29T05:05:47;13.77;;;4.00;;
67997;SDS011;54773;53.388;-1.504;2023-05-29T05:08:31;15.70;;;4.10;;
67997;SDS011;54773;53.388;-1.504;2023-05-29T05:11:16;12.50;;;4.22;;
67997;SDS011;54773;53.388;-1.504;2023-05-29T05:14:01;9.43;;;3.55;;
67997;SDS011;54773;53.388;-1.504;2023-05-29T05:16:49;9.32;;;3.58;;
67997;SDS011;54773;53.388;-1.504;2023-05-29T05:22:22;9.52;;;3.15;;
67997;SDS011;54773;53.388;-1.504;2023-05-29T05:25:07;12.10;;;3.35;;
67997;SDS011;54773;53.388;-1.504;2023-05-29T05:27:52;9.52;;;3.20;;
67997;SDS011;54773;53.388;-1.504;2023-05-29T05:30:36;12.68;;;3.55;;
67997;SDS011;54773;53.388;-1.504;2023-05-29T05:33:24;10.20;;;3.33;;
67997;SDS011;54773;53.388;-1.504;2023-05-29T05:36:12;8.85;;;3.30;;
67997;SDS011;54773;53.388;-1.504;2023-05-29T05:38:59;10.15;;;3.13;;
67997;SDS011;54773;53.388;-1.504;2023-05-29T05:41:46;11.18;;;3.72;;
67997;SDS011;54773;53.388;-1.504;2023-05-29T05:44:30;11.60;;;3.40;;
67997;SDS011;54773;53.388;-1.504;2023-05-29T05:47:14;10.50;;;3.70;;
67997;SDS011;54773;53.388;-1.504;2023-05-29T05:49:59;10.70;;;3.42;;
67997;SDS011;54773;53.388;-1.504;2023-05-29T05:52:43;9.27;;;3.03;;
67997;SDS011;54773;53.388;-1.504;2023-05-29T05:55:28;9.32;;;2.80;;
67997;SDS011;54773;53.388;-1.504;2023-05-29T05:58:12;11.07;;;3.22;;
67997;SDS011;54773;53.388;-1.504;2023-05-29T06:00:56;10.53;;;2.97;;
67997;SDS011;54773;53.388;-1.504;2023-05-29T06:03:44;10.68;;;2.55;;
67997;SDS011;54773;53.388;-1.504;2023-05-29T06:06:28;10.13;;;2.67;;
67997;SDS011;54773;53.388;-1.504;2023-05-29T06:09:12;12.43;;;2.70;;
67997;SDS011;54773;53.388;-1.504;2023-05-29T06:12:00;13.13;;;3.30;;
67997;SDS011;54773;53.388;-1.504;2023-05-29T06:14:47;7.15;;;2.40;;
67997;SDS011;54773;53.388;-1.504;2023-05-29T06:17:32;7.65;;;2.97;;
67997;SDS011;54773;53.388;-1.504;2023-05-29T06:20:19;10.05;;;3.00;;
67997;SDS011;54773;53.388;-1.504;2023-05-29T06:23:04;8.95;;;2.70;;
67997;SDS011;54773;53.388;-1.504;2023-05-29T06:25:48;9.88;;;2.67;;
67997;SDS011;54773;53.388;-1.504;2023-05-29T06:28:33;9.05;;;2.78;;
67997;SDS011;54773;53.388;-1.504;2023-05-29T06:31:17;8.75;;;3.17;;
67997;SDS011;54773;53.388;-1.504;2023-05-29T06:34:04;8.97;;;2.40;;
67997;SDS011;54773;53.388;-1.504;2023-05-29T06:36:51;8.50;;;2.53;;
67997;SDS011;54773;53.388;-1.504;2023-05-29T06:39:38;15.55;;;2.95;;
67997;SDS011;54773;53.388;-1.504;2023-05-29T06:42:28;8.30;;;2.50;;
67997;SDS011;54773;53.388;-1.504;2023-05-29T06:45:12;11.23;;;2.17;;
67997;SDS011;54773;53.388;-1.504;2023-05-29T06:47:59;9.93;;;2.50;;
67997;SDS011;54773;53.388;-1.504;2023-05-29T06:50:43;7.40;;;2.10;;
67997;SDS011;54773;53.388;-1.504;2023-05-29T06:53:28;7.80;;;2.92;;
67997;SDS011;54773;53.388;-1.504;2023-05-29T06:56:12;11.30;;;2.85;;
67997;SDS011;54773;53.388;-1.504;2023-05-29T06:58:56;7.68;;;2.17;;
67997;SDS011;54773;53.388;-1.504;2023-05-29T07:01:40;4.82;;;2.08;;
67997;SDS011;54773;53.388;-1.504;2023-05-29T07:04:24;8.17;;;2.20;;
67997;SDS011;54773;53.388;-1.504;2023-05-29T07:07:08;7.97;;;2.10;;
67997;SDS011;54773;53.388;-1.504;2023-05-29T07:09:52;9.03;;;2.70;;
67997;SDS011;54773;53.388;-1.504;2023-05-29T07:12:35;6.23;;;2.10;;
67997;SDS011;54773;53.388;-1.504;2023-05-29T07:15:19;9.65;;;2.35;;
67997;SDS011;54773;53.388;-1.504;2023-05-29T07:18:03;13.80;;;2.45;;
67997;SDS011;54773;53.388;-1.504;2023-05-29T07:20:50;8.55;;;2.20;;
67997;SDS011;54773;53.388;-1.504;2023-05-29T07:23:34;9.00;;;2.13;;
67997;SDS011;54773;53.388;-1.504;2023-05-29T07:26:18;16.67;;;2.87;;
67997;SDS011;54773;53.388;-1.504;2023-05-29T07:29:03;11.85;;;2.65;;
67997;SDS011;54773;53.388;-1.504;2023-05-29T07:31:47;10.02;;;2.53;;
67997;SDS011;54773;53.388;-1.504;2023-05-29T07:34:31;7.13;;;2.47;;
67997;SDS011;54773;53.388;-1.504;2023-05-29T07:37:17;10.05;;;2.10;;
67997;SDS011;54773;53.388;-1.504;2023-05-29T07:40:03;12.15;;;2.40;;
67997;SDS011;54773;53.388;-1.504;2023-05-29T07:42:50;7.70;;;2.10;;
67997;SDS011;54773;53.388;-1.504;2023-05-29T07:45:37;6.27;;;2.10;;
67997;SDS011;54773;53.388;-1.504;2023-05-29T07:48:21;9.68;;;2.05;;
67997;SDS011;54773;53.388;-1.504;2023-05-29T07:51:05;12.07;;;2.40;;
67997;SDS011;54773;53.388;-1.504;2023-05-29T07:53:53;10.15;;;2.30;;
67997;SDS011;54773;53.388;-1.504;2023-05-29T07:56:37;9.23;;;2.13;;
67997;SDS011;54773;53.388;-1.504;2023-05-29T07:59:21;7.78;;;2.08;;
67997;SDS011;54773;53.388;-1.504;2023-05-29T08:02:07;5.03;;;1.98;;
67997;SDS011;54773;53.388;-1.504;2023-05-29T08:04:51;9.95;;;2.10;;
67997;SDS011;54773;53.388;-1.504;2023-05-29T08:07:36;7.03;;;2.00;;
67997;SDS011;54773;53.388;-1.504;2023-05-29T08:10:20;5.72;;;1.70;;
67997;SDS011;54773;53.388;-1.504;2023-05-29T08:13:05;8.80;;;2.05;;
67997;SDS011;54773;53.388;-1.504;2023-05-29T08:15:48;7.10;;;2.00;;
67997;SDS011;54773;53.388;-1.504;2023-05-29T08:18:32;8.88;;;2.22;;
67997;SDS011;54773;53.388;-1.504;2023-05-29T08:21:17;5.38;;;1.75;;
67997;SDS011;54773;53.388;-1.504;2023-05-29T08:24:01;5.63;;;2.10;;
67997;SDS011;54773;53.388;-1.504;2023-05-29T08:26:48;7.75;;;1.75;;
67997;SDS011;54773;53.388;-1.504;2023-05-29T08:29:32;11.15;;;2.50;;
67997;SDS011;54773;53.388;-1.504;2023-05-29T08:32:17;8.23;;;2.50;;
67997;SDS011;54773;53.388;-1.504;2023-05-29T08:35:01;7.07;;;2.35;;
67997;SDS011;54773;53.388;-1.504;2023-05-29T08:37:45;6.63;;;1.80;;
67997;SDS011;54773;53.388;-1.504;2023-05-29T08:40:32;6.57;;;1.70;;
67997;SDS011;54773;53.388;-1.504;2023-05-29T08:43:16;7.70;;;1.98;;
67997;SDS011;54773;53.388;-1.504;2023-05-29T08:46:04;7.47;;;2.13;;
67997;SDS011;54773;53.388;-1.504;2023-05-29T08:48:49;7.57;;;2.42;;
67997;SDS011;54773;53.388;-1.504;2023-05-29T08:51:37;6.55;;;2.08;;
67997;SDS011;54773;53.388;-1.504;2023-05-29T08:54:22;7.60;;;2.30;;
67997;SDS011;54773;53.388;-1.504;2023-05-29T08:57:06;13.10;;;2.40;;
67997;SDS011;54773;53.388;-1.504;2023-05-29T08:59:51;10.15;;;2.00;;
67997;SDS011;54773;53.388;-1.504;2023-05-29T09:02:36;8.77;;;2.10;;
67997;SDS011;54773;53.388;-1.504;2023-05-29T09:05:20;7.00;;;2.08;;
67997;SDS011;54773;53.388;-1.504;2023-05-29T09:08:05;7.60;;;1.95;;
67997;SDS011;54773;53.388;-1.504;2023-05-29T09:10:50;6.68;;;2.65;;
67997;SDS011;54773;53.388;-1.504;2023-05-29T09:13:34;10.80;;;2.72;;
67997;SDS011;54773;53.388;-1.504;2023-05-29T09:27:40;13.02;;;2.65;;
67997;SDS011;54773;53.388;-1.504;2023-05-29T09:30:40;9.77;;;2.17;;
67997;SDS011;54773;53.388;-1.504;2023-05-29T09:33:25;7.07;;;2.20;;
67997;SDS011;54773;53.388;-1.504;2023-05-29T09:36:11;7.30;;;1.98;;
67997;SDS011;54773;53.388;-1.504;2023-05-29T09:39:03;7.10;;;2.00;;
67997;SDS011;54773;53.388;-1.504;2023-05-29T09:41:47;8.27;;;2.03;;
67997;SDS011;54773;53.388;-1.504;2023-05-29T09:44:31;7.47;;;2.20;;
67997;SDS011;54773;53.388;-1.504;2023-05-29T09:47:16;7.97;;;2.05;;
67997;SDS011;54773;53.388;-1.504;2023-05-29T09:50:01;9.23;;;2.38;;
67997;SDS011;54773;53.388;-1.504;2023-05-29T09:52:46;6.28;;;1.95;;
67997;SDS011;54773;53.388;-1.504;2023-05-29T09:55:30;8.38;;;2.17;;
67997;SDS011;54773;53.388;-1.504;2023-05-29T09:58:19;7.30;;;1.85;;
67997;SDS011;54773;53.388;-1.504;2023-05-29T10:01:02;7.75;;;2.45;;
67997;SDS011;54773;53.388;-1.504;2023-05-29T10:03:46;9.60;;;2.42;;
67997;SDS011;54773;53.388;-1.504;2023-05-29T10:06:31;8.13;;;2.10;;
67997;SDS011;54773;53.388;-1.504;2023-05-29T10:09:16;7.07;;;2.22;;
67997;SDS011;54773;53.388;-1.504;2023-05-29T10:12:02;7.43;;;2.00;;
67997;SDS011;54773;53.388;-1.504;2023-05-29T10:14:49;6.82;;;2.00;;
67997;SDS011;54773;53.388;-1.504;2023-05-29T10:17:34;12.23;;;2.38;;
67997;SDS011;54773;53.388;-1.504;2023-05-29T10:20:19;20.38;;;3.35;;
67997;SDS011;54773;53.388;-1.504;2023-05-29T10:23:05;7.68;;;2.17;;
67997;SDS011;54773;53.388;-1.504;2023-05-29T10:25:51;36.88;;;3.90;;
67997;SDS011;54773;53.388;-1.504;2023-05-29T10:28:36;12.43;;;2.40;;
67997;SDS011;54773;53.388;-1.504;2023-05-29T10:31:26;15.70;;;2.20;;
67997;SDS011;54773;53.388;-1.504;2023-05-29T10:34:25;18.23;;;2.75;;
67997;SDS011;54773;53.388;-1.504;2023-05-29T10:40:27;22.30;;;3.25;;
67997;SDS011;54773;53.388;-1.504;2023-05-29T10:43:30;7.40;;;1.98;;
67997;SDS011;54773;53.388;-1.504;2023-05-29T10:46:18;6.05;;;1.67;;
67997;SDS011;54773;53.388;-1.504;2023-05-29T10:49:02;8.65;;;2.13;;
67997;SDS011;54773;53.388;-1.504;2023-05-29T10:51:46;6.47;;;2.10;;
67997;SDS011;54773;53.388;-1.504;2023-05-29T10:54:39;8.68;;;2.50;;
67997;SDS011;54773;53.388;-1.504;2023-05-29T10:57:24;23.02;;;3.05;;
67997;SDS011;54773;53.388;-1.504;2023-05-29T11:00:10;8.88;;;2.42;;
67997;SDS011;54773;53.388;-1.504;2023-05-29T11:03:02;11.40;;;2.05;;
67997;SDS011;54773;53.388;-1.504;2023-05-29T11:08:55;11.95;;;2.45;;
67997;SDS011;54773;53.388;-1.504;2023-05-29T11:11:40;8.52;;;2.28;;
67997;SDS011;54773;53.388;-1.504;2023-05-29T11:14:26;8.60;;;2.35;;
67997;SDS011;54773;53.388;-1.504;2023-05-29T11:17:28;8.73;;;2.40;;
67997;SDS011;54773;53.388;-1.504;2023-05-29T11:23:06;8.32;;;2.35;;
67997;SDS011;54773;53.388;-1.504;2023-05-29T11:25:56;10.30;;;2.42;;
67997;SDS011;54773;53.388;-1.504;2023-05-29T11:28:40;6.10;;;1.92;;
67997;SDS011;54773;53.388;-1.504;2023-05-29T11:31:24;12.20;;;2.67;;
67997;SDS011;54773;53.388;-1.504;2023-05-29T11:34:14;13.32;;;2.42;;
67997;SDS011;54773;53.388;-1.504;2023-05-29T11:37:00;11.40;;;2.50;;
67997;SDS011;54773;53.388;-1.504;2023-05-29T11:39:45;47.83;;;6.72;;
67997;SDS011;54773;53.388;-1.504;2023-05-29T11:42:29;170.00;;;14.75;;
67997;SDS011;54773;53.388;-1.504;2023-05-29T11:45:17;48.42;;;4.97;;
67997;SDS011;54773;53.388;-1.504;2023-05-29T11:48:03;8.70;;;2.83;;
67997;SDS011;54773;53.388;-1.504;2023-05-29T13:40:09;5.78;;;2.13;;
67997;SDS011;54773;53.388;-1.504;2023-05-29T13:42:54;6.90;;;2.20;;
67997;SDS011;54773;53.388;-1.504;2023-05-29T13:45:38;7.18;;;2.10;;
67997;SDS011;54773;53.388;-1.504;2023-05-29T13:48:24;6.90;;;1.63;;
67997;SDS011;54773;53.388;-1.504;2023-05-29T13:51:09;6.55;;;2.15;;
67997;SDS011;54773;53.388;-1.504;2023-05-29T13:53:53;5.30;;;2.30;;
67997;SDS011;54773;53.388;-1.504;2023-05-29T13:56:37;7.00;;;1.80;;
67997;SDS011;54773;53.388;-1.504;2023-05-29T13:59:21;9.40;;;2.60;;
67997;SDS011;54773;53.388;-1.504;2023-05-29T14:02:05;8.27;;;2.22;;
67997;SDS011;54773;53.388;-1.504;2023-05-29T14:04:51;9.60;;;3.00;;
67997;SDS011;54773;53.388;-1.504;2023-05-29T14:07:35;6.18;;;1.70;;
67997;SDS011;54773;53.388;-1.504;2023-05-29T14:10:19;8.02;;;1.98;;
67997;SDS011;54773;53.388;-1.504;2023-05-29T14:13:03;9.02;;;2.67;;
67997;SDS011;54773;53.388;-1.504;2023-05-29T14:15:47;5.30;;;1.67;;
67997;SDS011;54773;53.388;-1.504;2023-05-29T14:18:32;8.00;;;2.53;;
67997;SDS011;54773;53.388;-1.504;2023-05-29T14:21:17;6.47;;;2.00;;
67997;SDS011;54773;53.388;-1.504;2023-05-29T14:24:01;5.93;;;2.50;;
67997;SDS011;54773;53.388;-1.504;2023-05-29T14:26:45;8.48;;;2.55;;
67997;SDS011;54773;53.388;-1.504;2023-05-29T14:29:30;10.25;;;2.40;;
67997;SDS011;54773;53.388;-1.504;2023-05-29T14:32:14;7.07;;;2.05;;
67997;SDS011;54773;53.388;-1.504;2023-05-29T14:34:58;9.35;;;2.40;;
67997;SDS011;54773;53.388;-1.504;2023-05-29T14:37:42;5.80;;;1.92;;
67997;SDS011;54773;53.388;-1.504;2023-05-29T14:40:26;5.80;;;2.00;;
67997;SDS011;54773;53.388;-1.504;2023-05-29T14:43:15;8.48;;;2.17;;
67997;SDS011;54773;53.388;-1.504;2023-05-29T14:45:59;8.57;;;2.03;;
67997;SDS011;54773;53.388;-1.504;2023-05-29T14:48:46;7.75;;;2.10;;
67997;SDS011;54773;53.388;-1.504;2023-05-29T14:51:33;5.50;;;1.83;;
67997;SDS011;54773;53.388;-1.504;2023-05-29T14:54:16;7.30;;;2.55;;
67997;SDS011;54773;53.388;-1.504;2023-05-29T14:57:00;9.10;;;2.00;;
67997;SDS011;54773;53.388;-1.504;2023-05-29T14:59:45;8.35;;;2.20;;
67997;SDS011;54773;53.388;-1.504;2023-05-29T15:05:14;6.25;;;1.85;;
67997;SDS011;54773;53.388;-1.504;2023-05-29T15:10:44;5.63;;;1.95;;
67997;SDS011;54773;53.388;-1.504;2023-05-29T15:13:28;6.03;;;2.00;;
67997;SDS011;54773;53.388;-1.504;2023-05-29T15:16:13;6.63;;;1.92;;
67997;SDS011;54773;53.388;-1.504;2023-05-29T15:18:57;6.90;;;2.08;;
67997;SDS011;54773;53.388;-1.504;2023-05-29T15:21:41;4.95;;;1.73;;
67997;SDS011;54773;53.388;-1.504;2023-05-29T15:27:09;6.82;;;2.40;;
67997;SDS011;54773;53.388;-1.504;2023-05-29T15:29:53;9.38;;;2.75;;
67997;SDS011;54773;53.388;-1.504;2023-05-29T15:32:53;6.63;;;2.90;;
67997;SDS011;54773;53.388;-1.504;2023-05-29T15:35:37;7.10;;;2.33;;
67997;SDS011;54773;53.388;-1.504;2023-05-29T15:38:22;9.32;;;2.40;;
67997;SDS011;54773;53.388;-1.504;2023-05-29T15:41:07;7.07;;;2.42;;
67997;SDS011;54773;53.388;-1.504;2023-05-29T15:43:52;8.88;;;2.38;;
67997;SDS011;54773;53.388;-1.504;2023-05-29T15:46:36;6.70;;;2.30;;
67997;SDS011;54773;53.388;-1.504;2023-05-29T15:49:20;7.72;;;2.35;;
67997;SDS011;54773;53.388;-1.504;2023-05-29T15:52:04;5.20;;;2.22;;
67997;SDS011;54773;53.388;-1.504;2023-05-29T15:54:48;5.68;;;2.00;;
67997;SDS011;54773;53.388;-1.504;2023-05-29T15:57:32;9.77;;;2.33;;
67997;SDS011;54773;53.388;-1.504;2023-05-29T16:00:16;7.47;;;2.38;;
67997;SDS011;54773;53.388;-1.504;2023-05-29T16:03:01;7.80;;;2.22;;
67997;SDS011;54773;53.388;-1.504;2023-05-29T16:08:29;8.10;;;2.20;;
67997;SDS011;54773;53.388;-1.504;2023-05-29T16:13:58;6.05;;;2.13;;
67997;SDS011;54773;53.388;-1.504;2023-05-29T16:16:42;8.98;;;2.17;;
67997;SDS011;54773;53.388;-1.504;2023-05-29T16:19:26;12.43;;;2.78;;
67997;SDS011;54773;53.388;-1.504;2023-05-29T16:22:11;9.43;;;2.25;;
67997;SDS011;54773;53.388;-1.504;2023-05-29T16:24:56;7.32;;;2.22;;
67997;SDS011;54773;53.388;-1.504;2023-05-29T16:30:24;7.47;;;2.08;;
67997;SDS011;54773;53.388;-1.504;2023-05-29T16:33:08;7.20;;;2.35;;
67997;SDS011;54773;53.388;-1.504;2023-05-29T16:35:52;8.68;;;2.20;;
67997;SDS011;54773;53.388;-1.504;2023-05-29T16:38:37;6.32;;;2.08;;
67997;SDS011;54773;53.388;-1.504;2023-05-29T16:44:05;32.63;;;26.17;;
67997;SDS011;54773;53.388;-1.504;2023-05-29T16:46:49;24.25;;;18.73;;
67997;SDS011;54773;53.388;-1.504;2023-05-29T16:49:33;10.55;;;4.47;;
67997;SDS011;54773;53.388;-1.504;2023-05-29T16:52:17;8.23;;;3.22;;
67997;SDS011;54773;53.388;-1.504;2023-05-29T16:55:03;10.25;;;3.63;;
67997;SDS011;54773;53.388;-1.504;2023-05-29T16:57:47;11.68;;;5.18;;
67997;SDS011;54773;53.388;-1.504;2023-05-29T17:00:31;11.68;;;4.95;;
67997;SDS011;54773;53.388;-1.504;2023-05-29T17:03:15;9.52;;;2.63;;
67997;SDS011;54773;53.388;-1.504;2023-05-29T17:05:59;11.40;;;3.42;;
67997;SDS011;54773;53.388;-1.504;2023-05-29T17:08:43;15.88;;;6.00;;
67997;SDS011;54773;53.388;-1.504;2023-05-29T17:11:27;11.57;;;3.95;;
67997;SDS011;54773;53.388;-1.504;2023-05-29T17:14:11;11.43;;;2.90;;
67997;SDS011;54773;53.388;-1.504;2023-05-29T17:16:56;9.70;;;2.53;;
67997;SDS011;54773;53.388;-1.504;2023-05-29T17:19:41;9.38;;;2.97;;
67997;SDS011;54773;53.388;-1.504;2023-05-29T17:22:25;8.70;;;2.70;;
67997;SDS011;54773;53.388;-1.504;2023-05-29T17:25:09;10.85;;;3.45;;
67997;SDS011;54773;53.388;-1.504;2023-05-29T17:27:53;9.57;;;2.53;;
67997;SDS011;54773;53.388;-1.504;2023-05-29T17:30:37;9.80;;;2.65;;
67997;SDS011;54773;53.388;-1.504;2023-05-29T17:36:05;9.07;;;2.60;;
67997;SDS011;54773;53.388;-1.504;2023-05-29T17:41:35;10.98;;;2.85;;
67997;SDS011;54773;53.388;-1.504;2023-05-29T17:44:19;8.15;;;2.97;;
67997;SDS011;54773;53.388;-1.504;2023-05-29T17:47:03;7.63;;;2.60;;
67997;SDS011;54773;53.388;-1.504;2023-05-29T17:49:48;8.73;;;2.72;;
67997;SDS011;54773;53.388;-1.504;2023-05-29T17:52:34;13.05;;;3.22;;
67997;SDS011;54773;53.388;-1.504;2023-05-29T17:55:22;7.85;;;2.78;;
67997;SDS011;54773;53.388;-1.504;2023-05-29T17:58:08;7.68;;;2.90;;
67997;SDS011;54773;53.388;-1.504;2023-05-29T18:00:55;9.15;;;2.47;;
67997;SDS011;54773;53.388;-1.504;2023-05-29T18:03:43;11.82;;;2.65;;
67997;SDS011;54773;53.388;-1.504;2023-05-29T18:06:27;8.45;;;2.88;;
67997;SDS011;54773;53.388;-1.504;2023-05-29T18:09:10;8.68;;;2.67;;
67997;SDS011;54773;53.388;-1.504;2023-05-29T18:11:57;7.00;;;2.67;;
67997;SDS011;54773;53.388;-1.504;2023-05-29T18:14:41;12.60;;;2.83;;
67997;SDS011;54773;53.388;-1.504;2023-05-29T18:17:29;12.20;;;3.20;;
67997;SDS011;54773;53.388;-1.504;2023-05-29T18:20:13;8.82;;;2.83;;
67997;SDS011;54773;53.388;-1.504;2023-05-29T18:23:00;9.57;;;2.88;;
67997;SDS011;54773;53.388;-1.504;2023-05-29T18:25:47;9.32;;;2.75;;
67997;SDS011;54773;53.388;-1.504;2023-05-29T18:28:31;7.88;;;2.47;;
67997;SDS011;54773;53.388;-1.504;2023-05-29T18:31:19;10.57;;;3.08;;
67997;SDS011;54773;53.388;-1.504;2023-05-29T18:34:04;8.70;;;2.60;;
67997;SDS011;54773;53.388;-1.504;2023-05-29T18:36:47;14.00;;;3.80;;
67997;SDS011;54773;53.388;-1.504;2023-05-29T18:39:31;9.70;;;2.67;;
67997;SDS011;54773;53.388;-1.504;2023-05-29T18:42:15;10.77;;;2.72;;
67997;SDS011;54773;53.388;-1.504;2023-05-29T18:44:59;11.70;;;3.05;;
67997;SDS011;54773;53.388;-1.504;2023-05-29T18:50:28;12.30;;;3.33;;
67997;SDS011;54773;53.388;-1.504;2023-05-29T18:55:56;9.88;;;2.67;;
67997;SDS011;54773;53.388;-1.504;2023-05-29T18:58:40;10.77;;;2.53;;
67997;SDS011;54773;53.388;-1.504;2023-05-29T19:01:24;6.80;;;2.30;;
67997;SDS011;54773;53.388;-1.504;2023-05-29T19:04:08;9.50;;;2.40;;
67997;SDS011;54773;53.388;-1.504;2023-05-29T19:06:52;8.23;;;3.60;;
67997;SDS011;54773;53.388;-1.504;2023-05-29T19:09:38;9.35;;;3.17;;
67997;SDS011;54773;53.388;-1.504;2023-05-29T19:12:23;8.90;;;2.78;;
67997;SDS011;54773;53.388;-1.504;2023-05-29T19:15:08;10.60;;;3.13;;
67997;SDS011;54773;53.388;-1.504;2023-05-29T19:17:53;13.70;;;3.10;;